Verdigris, Oklahoma
Current Conditions -  °F | °C
As of 2:15 PM on Thursday 30 Oct 2014 (Local Time) from KGCM Reporting Station
Clear Clear  
Wind Chill: 70°   Ceiling: Unl
Heat Index: 70°   Visibility: 10mi
Dew Point: 43°   Wind: 10mph
Humidity: 38%   Direction: 300°WNW
Pressure: 30.09"   Gusts: NA
Location:  36.3346°N, 95.5666°W
Report Text: KGCM 301915Z AUTO 30009KT 275V355 10SM CLR 21/06 A3009 RMK AO2
Loading
Personal Weather Stations






























Interactive Weather Map
Tropical Storm Tracking
New forecast layout! Learn more

10-Day Weather Forecast

Advertisements
Track Severe Weather on mobile